< < Back
Terminal Aerodrome Forecast


Current Version              Previous Versions:   1  2  3  4  5  6  7  8  9  

Terminal Aerodrome Forecast

797
FTUS42 KCAE 240500
TAFAGS
TAF
KAGS 240539Z 2406/2506 00000KT P6SM SCT200
     FM241500 VRB04KT P6SM SCT200=



Latest METAR

107
SAUS70 KWBC 240700 RRA
MTRAGS
METAR KAGS 240653Z AUTO 00000KT 10SM CLR 07/06 A3003 RMK AO2 SLP168
T00720056


USA.gov is the U.S. government's official web portal to all federal, state and local government web resources and services.